Time;durP1;ratioP1;P1;durP2;ratioP2;P2;SDS_P1;SDS_P2;PMS_P1;PMS_P2;Temp;Humidity;BMP_temperature;BMP_pressure;BME280_temperature;BME280_humidity;BME280_pressure;Samples;Min_cycle;Max_cycle;Signal;HPM_P1;HPM_P2
2022/05/01 00:00:48;;;;;;;0.70;0.70;;;7.50;99.90;7.50;102356.00;;;;5035951;28;20185;-79
2022/05/01 00:03:31;;;;;;;0.60;0.60;;;7.50;99.90;7.40;102350.00;;;;5034261;28;20188;-80
2022/05/01 00:06:11;;;;;;;0.60;0.60;;;7.60;99.90;7.30;102347.00;;;;5020436;28;20199;-79
2022/05/01 00:08:40;;;;;;;0.60;0.60;;;7.50;99.90;7.40;102358.00;;;;5035404;28;20262;-80
2022/05/01 00:11:08;;;;;;;0.60;0.60;;;7.50;99.90;7.20;102360.00;;;;5035524;28;20204;-79
2022/05/01 00:13:35;;;;;;;0.60;0.60;;;7.40;99.90;7.50;102358.00;;;;5034415;28;20187;-80
2022/05/01 00:16:03;;;;;;;0.60;0.60;;;7.60;99.90;7.60;102360.00;;;;5034451;28;20567;-80
2022/05/01 00:18:31;;;;;;;0.60;0.60;;;7.60;99.90;7.60;102349.00;;;;5034258;28;20210;-80
2022/05/01 00:20:59;;;;;;;0.60;0.60;;;7.60;99.90;7.80;102313.00;;;;5018172;28;20189;-80
2022/05/01 00:23:31;;;;;;;1.80;1.70;;;7.80;99.90;7.80;102344.00;;;;5016566;28;20207;-78
2022/05/01 00:26:03;;;;;;;1.03;1.03;;;7.90;99.90;8.10;102345.00;;;;5017789;28;20239;-80
2022/05/01 00:28:36;;;;;;;1.43;0.90;;;8.10;99.90;8.00;102345.00;;;;5033161;28;20180;-80
2022/05/01 00:31:08;;;;;;;1.27;1.27;;;8.20;99.90;7.90;102332.00;;;;5033565;28;20544;-79
2022/05/01 00:36:26;;;;;;;0.73;0.73;;;8.10;99.90;7.90;102331.00;;;;5033868;28;20191;-79
2022/05/01 00:39:04;;;;;;;0.60;0.60;;;8.10;99.90;7.80;102328.00;;;;5033865;28;20179;-80
2022/05/01 00:41:43;;;;;;;0.80;0.80;;;8.00;99.90;7.50;102277.00;;;;5033994;28;20215;-79
2022/05/01 00:44:19;;;;;;;0.60;0.60;;;7.80;99.90;7.50;102332.00;;;;5033069;28;20178;-79
2022/05/01 00:46:52;;;;;;;1.20;1.20;;;7.70;99.90;7.60;102325.00;;;;5034137;28;20183;-79
2022/05/01 00:49:30;;;;;;;1.47;1.37;;;7.60;99.90;7.50;102313.00;;;;5050096;28;20190;-80
2022/05/01 00:52:13;;;;;;;0.60;0.60;;;7.80;99.90;7.40;102273.00;;;;5033609;28;20617;-79
2022/05/01 00:54:47;;;;;;;0.60;0.60;;;7.60;99.90;7.50;102325.00;;;;5032371;28;20187;-80
2022/05/01 00:57:18;;;;;;;0.73;0.73;;;7.80;99.90;7.50;102322.00;;;;5034731;28;20180;-80
2022/05/01 00:59:50;;;;;;;0.63;0.63;;;7.60;99.90;7.30;102330.00;;;;5016299;28;20188;-80
2022/05/01 01:02:21;;;;;;;1.23;1.23;;;7.60;99.90;7.30;102325.00;;;;5032017;28;20245;-80
2022/05/01 01:04:52;;;;;;;0.60;0.60;;;7.50;99.90;6.70;102315.00;;;;5016977;28;20191;-82
2022/05/01 01:07:23;;;;;;;0.60;0.60;;;7.30;99.90;6.60;102317.00;;;;5033475;28;20174;-82
2022/05/01 01:09:54;;;;;;;0.60;0.60;;;7.00;99.90;6.60;102322.00;;;;5033971;28;20525;-80
2022/05/01 01:15:11;;;;;;;0.60;0.60;;;6.90;99.90;6.50;102314.00;;;;5034030;28;20240;-81
2022/05/01 01:17:46;;;;;;;0.67;0.67;;;6.80;99.90;6.60;102317.00;;;;5034628;28;20531;-81
2022/05/01 01:20:18;;;;;;;0.60;0.60;;;6.80;99.90;6.40;102308.00;;;;5032334;28;20740;-82
2022/05/01 01:22:48;;;;;;;0.63;0.63;;;6.70;99.90;6.20;102317.00;;;;5034258;28;20658;-82
2022/05/01 01:25:19;;;;;;;0.70;0.70;;;6.60;99.90;6.80;102319.00;;;;5032240;28;20187;-80
2022/05/01 01:27:48;;;;;;;1.07;1.07;;;6.70;99.90;6.90;102328.00;;;;5033543;28;20262;-81
2022/05/01 01:33:02;;;;;;;0.73;0.73;;;7.10;99.90;6.80;102323.00;;;;5032876;28;20284;-82
2022/05/01 01:35:38;;;;;;;0.60;0.60;;;7.20;99.90;6.80;102314.00;;;;5032950;28;20183;-80
2022/05/01 01:38:09;;;;;;;0.60;0.60;;;7.10;99.90;6.90;102303.00;;;;5015303;28;20194;-80
2022/05/01 01:40:46;;;;;;;0.70;0.70;;;7.00;99.90;6.80;102270.00;;;;5032750;28;20174;-81
2022/05/01 01:43:18;;;;;;;1.10;1.10;;;7.00;99.90;6.40;102313.00;;;;5032368;28;20203;-80
2022/05/01 01:45:47;;;;;;;0.70;0.70;;;6.80;99.90;6.30;102311.00;;;;5031476;28;20180;-79
2022/05/01 01:48:18;;;;;;;0.67;0.67;;;6.60;99.90;6.40;102261.00;;;;5032082;28;20537;-78
2022/05/01 01:51:02;;;;;;;0.70;0.70;;;6.60;99.90;6.30;102314.00;;;;5031972;28;20177;-80
2022/05/01 01:53:34;;;;;;;0.70;0.70;;;6.60;99.90;6.30;102292.00;;;;5049194;28;20209;-79
2022/05/01 01:56:01;;;;;;;0.70;0.70;;;6.50;99.90;6.40;102259.00;;;;5032514;28;20688;-79
2022/05/01 01:58:28;;;;;;;0.70;0.70;;;6.50;99.90;6.30;102308.00;;;;5033218;28;20248;-77
2022/05/01 02:00:59;;;;;;;0.80;0.80;;;6.50;99.90;6.60;102312.00;;;;5033154;28;20175;-80
2022/05/01 02:03:27;;;;;;;0.70;0.70;;;6.60;99.90;6.80;102302.00;;;;5032200;28;20184;-81
2022/05/01 02:05:53;;;;;;;0.70;0.70;;;7.00;99.90;7.10;102311.00;;;;5032953;28;20175;-78
2022/05/01 02:08:21;;;;;;;0.60;0.60;;;7.10;99.90;7.10;102302.00;;;;5031522;28;20241;-78
2022/05/01 02:10:50;;;;;;;1.60;1.50;;;7.20;99.90;7.30;102297.00;;;;5032128;28;20171;-79
2022/05/01 02:13:16;;;;;;;0.70;0.70;;;7.30;99.90;7.40;102291.00;;;;5014406;28;20179;-79
2022/05/01 02:15:48;;;;;;;1.90;1.57;;;7.50;99.90;7.10;102290.00;;;;5032171;28;20191;-78
2022/05/01 02:18:14;;;;;;;0.80;0.80;;;7.50;99.90;6.90;102296.00;;;;5032458;28;20167;-78
2022/05/01 02:23:26;;;;;;;0.70;0.70;;;7.20;99.90;6.80;102292.00;;;;5032251;28;20194;-79
2022/05/01 02:26:00;;;;;;;0.60;0.60;;;7.10;99.90;6.80;102248.00;;;;5032104;28;20187;-81
2022/05/01 02:28:32;;;;;;;3.40;3.10;;;7.00;99.90;6.90;102278.00;;;;5032430;28;20167;-80
2022/05/01 02:30:58;;;;;;;0.70;0.70;;;7.10;99.90;7.00;102274.00;;;;5031463;28;20190;-81
2022/05/01 02:33:36;;;;;;;0.70;0.70;;;7.10;99.90;7.10;102281.00;;;;5013765;28;20194;-82
2022/05/01 02:36:05;;;;;;;0.70;0.70;;;7.30;99.90;6.60;102276.00;;;;5031504;28;20175;-79
2022/05/01 02:38:36;;;;;;;0.70;0.70;;;7.00;99.90;6.50;102275.00;;;;5030861;28;20163;-82
2022/05/01 02:41:05;;;;;;;0.70;0.70;;;6.80;99.90;6.50;102273.00;;;;5032011;28;20643;-81
2022/05/01 02:43:31;;;;;;;0.70;0.70;;;6.70;99.90;6.80;102276.00;;;;5015241;28;20212;-81
2022/05/01 02:46:02;;;;;;;0.80;0.80;;;6.80;99.90;6.50;102278.00;;;;5015525;28;20179;-81
2022/05/01 02:48:33;;;;;;;0.70;0.70;;;6.70;99.90;5.90;102263.00;;;;5030836;28;20175;-81
2022/05/01 02:51:01;;;;;;;0.70;0.70;;;6.50;99.90;6.10;102265.00;;;;5032920;28;20222;-80
2022/05/01 02:53:31;;;;;;;0.70;0.70;;;6.30;99.90;6.20;102270.00;;;;5030676;28;20306;-81
2022/05/01 02:56:03;;;;;;;0.73;0.73;;;6.40;99.90;6.40;102267.00;;;;5031936;28;20233;-80
2022/05/01 02:58:35;;;;;;;0.70;0.70;;;6.60;99.90;6.00;102269.00;;;;5015527;28;20208;-81
2022/05/01 03:01:09;;;;;;;0.80;0.80;;;6.40;99.90;5.90;102270.00;;;;5031526;28;21198;-80
2022/05/01 03:03:40;;;;;;;0.70;0.70;;;6.20;99.90;6.10;102262.00;;;;5031935;28;20272;-82
2022/05/01 03:06:08;;;;;;;0.70;0.70;;;6.20;99.90;5.90;102272.00;;;;5015148;28;20210;-82
2022/05/01 03:08:36;;;;;;;0.70;0.70;;;6.10;99.90;6.10;102269.00;;;;5033313;28;20169;-81
2022/05/01 03:11:02;;;;;;;0.70;0.70;;;6.30;99.90;6.00;102265.00;;;;5014871;28;20197;-79
2022/05/01 03:13:29;;;;;;;0.70;0.70;;;6.20;99.90;6.10;102262.00;;;;5014333;28;20171;-80
2022/05/01 03:15:58;;;;;;;0.70;0.70;;;6.30;99.90;6.10;102267.00;;;;5031737;28;20180;-78
2022/05/01 03:24:09;;;;;;;0.70;0.70;;;6.30;99.90;6.40;102247.00;;;;5020079;28;20183;-80
2022/05/01 03:26:35;;;;;;;0.70;0.70;;;6.50;99.90;6.50;102260.00;;;;5034030;28;20229;-80
2022/05/01 03:29:04;;;;;;;0.80;0.80;;;6.60;99.90;6.20;102257.00;;;;5034994;28;20631;-81
2022/05/01 03:31:29;;;;;;;0.77;0.77;;;6.50;99.90;6.40;102257.00;;;;5036846;28;20214;-80
2022/05/01 03:33:59;;;;;;;0.70;0.70;;;6.40;99.90;6.10;102254.00;;;;5021470;28;20552;-79
2022/05/01 03:36:27;;;;;;;0.70;0.70;;;6.40;99.90;5.80;102238.00;;;;5022006;28;20182;-81
2022/05/01 03:38:53;;;;;;;0.70;0.70;;;6.20;99.90;6.00;102252.00;;;;5021829;28;20189;-80
2022/05/01 03:41:19;;;;;;;0.70;0.70;;;6.30;99.90;6.00;102248.00;;;;5021560;28;20179;-80
2022/05/01 03:43:47;;;;;;;1.00;1.00;;;6.20;99.90;6.00;102243.00;;;;5038219;28;20249;-82
2022/05/01 03:46:13;;;;;;;0.77;0.77;;;6.20;99.90;5.90;102259.00;;;;5021000;28;20515;-82
2022/05/01 03:48:39;;;;;;;0.70;0.70;;;6.10;99.90;5.90;102237.00;;;;5021553;28;20189;-82
2022/05/01 03:51:06;;;;;;;1.23;1.23;;;6.10;99.90;6.30;102249.00;;;;5021744;28;20189;-82
2022/05/01 03:53:40;;;;;;;0.73;0.73;;;6.30;99.90;5.80;102228.00;;;;5038004;28;20201;-81
2022/05/01 03:56:10;;;;;;;0.80;0.80;;;6.20;99.90;5.80;102247.00;;;;5021284;28;20182;-82
2022/05/01 03:58:36;;;;;;;0.70;0.70;;;6.10;99.90;5.80;102251.00;;;;5055502;28;20264;-82
2022/05/01 04:01:07;;;;;;;0.70;0.70;;;6.00;99.90;5.60;102233.00;;;;5020653;28;20178;-81
2022/05/01 04:03:33;;;;;;;0.70;0.70;;;5.90;99.90;5.60;102248.00;;;;5021688;28;20214;-82
2022/05/01 04:05:59;;;;;;;0.60;0.60;;;5.90;99.90;6.00;102239.00;;;;5037453;28;20240;-82
2022/05/01 04:08:25;;;;;;;0.70;0.70;;;6.00;99.90;6.00;102228.00;;;;5037904;28;20589;-81
2022/05/01 04:10:51;;;;;;;0.70;0.70;;;6.10;99.90;6.00;102234.00;;;;5021263;28;20680;-81
2022/05/01 04:13:18;;;;;;;0.80;0.80;;;6.10;99.90;6.00;102233.00;;;;5020316;28;20210;-80
2022/05/01 04:15:44;;;;;;;0.80;0.80;;;6.10;99.90;6.20;102240.00;;;;5036916;28;20177;-82
2022/05/01 04:18:12;;;;;;;0.70;0.70;;;6.30;99.90;6.00;102237.00;;;;5037549;28;20179;-80
2022/05/01 04:20:41;;;;;;;0.80;0.80;;;6.20;99.90;5.80;102232.00;;;;5016425;28;20251;-80
2022/05/01 04:23:08;;;;;;;0.90;0.90;;;6.10;99.90;5.70;102245.00;;;;5001294;28;20190;-81
2022/05/01 04:25:35;;;;;;;0.80;0.80;;;6.00;99.90;5.80;102233.00;;;;5001262;28;20688;-80
2022/05/01 04:28:09;;;;;;;0.73;0.73;;;5.90;99.90;5.80;102200.00;;;;5017533;28;20234;-80
2022/05/01 04:30:39;;;;;;;0.80;0.80;;;5.90;99.90;5.70;102227.00;;;;5017438;28;20206;-80
2022/05/01 04:33:16;;;;;;;0.80;0.80;;;5.90;99.90;5.80;102191.00;;;;5017421;28;20226;-80
2022/05/01 04:35:50;;;;;;;0.80;0.80;;;6.00;99.90;6.00;102230.00;;;;5017048;28;20673;-80
2022/05/01 04:38:21;;;;;;;1.00;1.00;;;6.00;99.90;6.50;102240.00;;;;5017071;28;20159;-79
2022/05/01 04:40:50;;;;;;;2.53;2.47;;;6.40;99.90;5.90;102241.00;;;;5016899;28;20694;-78
2022/05/01 04:43:27;;;;;;;0.70;0.70;;;6.40;99.90;6.00;102240.00;;;;5017293;28;20202;-78
2022/05/01 04:45:55;;;;;;;0.80;0.80;;;6.30;99.90;6.20;102243.00;;;;5035350;28;20220;-79
2022/05/01 04:48:23;;;;;;;0.70;0.70;;;6.40;99.90;6.20;102240.00;;;;4999498;28;20573;-78
2022/05/01 04:50:50;;;;;;;0.70;0.70;;;6.40;99.90;6.60;102240.00;;;;4999393;28;20183;-81
2022/05/01 04:53:19;;;;;;;1.30;1.30;;;6.60;99.90;7.00;102230.00;;;;5016714;28;20263;-81
2022/05/01 04:55:47;;;;;;;2.87;2.77;;;6.90;99.90;7.50;102251.00;;;;5035121;28;20171;-81
2022/05/01 04:58:17;;;;;;;0.77;0.77;;;7.40;99.90;7.50;102238.00;;;;5033149;28;20639;-80
2022/05/01 05:00:45;;;;;;;0.70;0.70;;;7.60;99.90;7.60;102241.00;;;;5015641;28;20622;-81
2022/05/01 05:03:13;;;;;;;0.70;0.70;;;7.80;99.90;8.20;102252.00;;;;5016918;28;20195;-80
2022/05/01 05:05:39;;;;;;;8.97;3.90;;;8.10;99.90;8.90;102248.00;;;;5016228;28;20320;-80
2022/05/01 05:10:51;;;;;;;0.50;0.50;;;9.30;99.90;10.70;102247.00;;;;5018498;28;20220;-80
2022/05/01 05:13:24;;;;;;;0.50;0.50;;;10.20;99.90;11.70;102250.00;;;;5033227;28;20306;-80
2022/05/01 05:15:58;;;;;;;0.60;0.60;;;11.10;99.90;12.30;102255.00;;;;5014986;28;20177;-80
2022/05/01 05:18:26;;;;;;;0.60;0.60;;;11.80;99.90;12.70;102248.00;;;;5017315;28;20622;-80
2022/05/01 05:20:56;;;;;;;1.50;1.50;;;12.40;99.90;13.20;102252.00;;;;5016787;28;20179;-80
2022/05/01 05:23:21;;;;;;;0.50;0.50;;;12.80;99.90;13.20;102256.00;;;;5015956;28;20580;-79
2022/05/01 05:25:50;;;;;;;0.40;0.40;;;12.90;99.90;14.00;102232.00;;;;5016266;28;20176;-80
2022/05/01 05:28:18;;;;;;;0.30;0.30;;;13.40;99.90;14.90;102276.00;;;;5034335;28;20358;-80
2022/05/01 05:30:44;;;;;;;0.40;0.40;;;14.20;99.90;15.80;102293.00;;;;5033912;28;20232;-80
2022/05/01 05:33:10;;;;;;;0.30;0.30;;;15.00;99.90;17.00;102319.00;;;;5016049;28;20227;-80
2022/05/01 05:35:36;;;;;;;2.30;2.20;;;15.90;99.90;17.50;102344.00;;;;5015473;28;20510;-76
2022/05/01 05:38:05;;;;;;;0.20;0.20;;;16.40;99.90;17.70;102366.00;;;;5000183;28;20183;-80
2022/05/01 05:40:31;;;;;;;0.20;0.20;;;17.00;99.90;16.30;102370.00;;;;5015855;28;20244;-79
2022/05/01 05:42:57;;;;;;;0.10;0.10;;;16.20;99.90;17.10;102390.00;;;;5015730;28;20689;-81
2022/05/01 05:45:23;;;;;;;0.57;0.57;;;16.30;99.90;17.70;102360.00;;;;5015562;28;20185;-79
2022/05/01 05:47:49;;;;;;;0.20;0.20;;;16.70;99.90;18.00;102406.00;;;;5016264;28;20178;-79
2022/05/01 05:50:27;;;;;;;0.10;0.10;;;17.00;99.90;18.00;102415.00;;;;5015122;28;20308;-80
2022/05/01 05:52:52;;;;;;;0.37;0.37;;;17.20;99.90;18.00;102425.00;;;;5016290;28;20195;-79
2022/05/01 05:55:18;;;;;;;0.17;0.17;;;17.10;99.90;17.00;102427.00;;;;5015584;28;20179;-77
2022/05/01 05:57:45;;;;;;;0.60;0.60;;;16.80;99.90;17.60;102425.00;;;;5016012;28;20211;-82
2022/05/01 06:00:14;;;;;;;0.55;0.55;;;16.80;99.90;18.20;102436.00;;;;5016471;28;20225;-79
2022/05/01 06:02:46;;;;;;;0.20;0.20;;;17.10;99.90;19.10;102450.00;;;;5014388;28;20213;-80
2022/05/01 06:05:12;;;;;;;0.40;0.40;;;17.90;99.90;20.20;102456.00;;;;4999351;28;20186;-80
2022/05/01 06:07:38;;;;;;;0.10;0.10;;;18.80;99.90;21.00;102469.00;;;;5015759;28;20239;-81
2022/05/01 06:10:07;;;;;;;0.80;0.80;;;19.80;99.90;22.20;102480.00;;;;4999342;28;20181;-80
2022/05/01 06:12:43;;;;;;;0.10;0.10;;;20.80;99.90;22.50;102459.00;;;;4999220;28;20190;-82
2022/05/01 06:15:10;;;;;;;0.38;0.30;;;21.40;99.90;23.40;102498.00;;;;5033374;28;20189;-80
2022/05/01 06:17:36;;;;;;;0.10;0.10;;;22.00;99.90;22.00;102497.00;;;;5014403;28;20194;-80
2022/05/01 06:20:02;;;;;;;0.10;0.10;;;21.80;99.90;22.30;102501.00;;;;5015395;28;20179;-82
2022/05/01 06:22:38;;;;;;;0.10;0.10;;;21.60;99.90;22.10;102490.00;;;;5014637;28;20662;-80
2022/05/01 06:25:05;;;;;;;0.13;0.13;;;21.30;99.90;22.30;102504.00;;;;5015845;28;20599;-79
2022/05/01 06:27:31;;;;;;;0.10;0.10;;;21.30;99.90;20.90;102506.00;;;;4998602;28;20266;-79
2022/05/01 06:29:59;;;;;;;0.32;0.32;;;20.80;99.90;20.70;102490.00;;;;5014698;28;20262;-82
2022/05/01 06:32:26;;;;;;;0.68;0.68;;;20.50;99.90;20.80;102490.00;;;;5014701;28;20191;-82
2022/05/01 06:34:54;;;;;;;0.20;0.20;;;20.10;99.90;20.50;102470.00;;;;5015415;28;20178;-80
2022/05/01 06:37:20;;;;;;;1.05;1.00;;;20.00;99.90;19.70;102480.00;;;;5031695;28;20179;-80
2022/05/01 06:39:46;;;;;;;1.83;1.75;;;19.40;99.90;20.00;102483.00;;;;5015650;28;20189;-81
2022/05/01 06:42:12;;;;;;;0.25;0.25;;;19.50;99.90;19.60;102473.00;;;;4998381;28;20225;-79
2022/05/01 06:44:40;;;;;;;0.10;0.10;;;19.30;99.90;19.10;102479.00;;;;5031887;28;20190;-82
2022/05/01 06:47:08;;;;;;;2.50;2.28;;;19.00;99.90;18.90;102470.00;;;;5027697;28;20213;-77
2022/05/01 06:49:34;;;;;;;2.30;2.10;;;18.60;99.90;17.60;102467.00;;;;5033805;28;20173;-76
2022/05/01 06:52:03;;;;;;;0.77;0.77;;;17.90;99.90;17.20;102458.00;;;;5018548;28;20183;-77
2022/05/01 06:54:47;;;;;;;1.00;1.00;;;17.30;99.90;17.10;102455.00;;;;5020946;28;20200;-77
2022/05/01 06:58:05;;;;;;;0.20;0.20;;;16.90;99.90;16.60;102408.00;;;;5056427;28;20179;-77
2022/05/01 07:00:32;;;;;;;1.53;0.67;;;16.40;99.90;16.40;102428.00;;;;5025041;28;20237;-75
2022/05/01 07:02:58;;;;;;;1.17;1.17;;;16.20;99.90;15.90;102422.00;;;;5038659;28;20206;-76
2022/05/01 07:05:25;;;;;;;0.40;0.40;;;15.80;99.90;14.40;102386.00;;;;5016669;28;20367;-78
2022/05/01 07:07:51;;;;;;;0.20;0.20;;;14.90;99.90;12.70;102321.00;;;;5020226;28;20181;-77
2022/05/01 07:10:19;;;;;;;0.20;0.20;;;13.80;99.90;12.40;102280.00;;;;5035522;28;20192;-77
2022/05/01 07:12:45;;;;;;;1.27;1.27;;;13.10;99.90;13.70;102289.00;;;;5039422;28;20220;-78
2022/05/01 07:15:14;;;;;;;3.10;2.53;;;13.30;99.90;13.10;102298.00;;;;5039125;28;20665;-78
2022/05/01 07:17:41;;;;;;;2.27;1.60;;;13.60;99.90;12.20;102283.00;;;;5039064;28;20187;-80
2022/05/01 07:20:09;;;;;;;1.43;1.43;;;13.20;99.90;12.70;102264.00;;;;5056575;28;20238;-76
2022/05/01 07:22:36;;;;;;;2.73;1.40;;;13.10;99.90;12.80;102277.00;;;;5054995;28;20204;-75
2022/05/01 07:25:03;;;;;;;2.27;2.17;;;13.30;99.90;12.90;102274.00;;;;5022080;28;20238;-74
2022/05/01 07:27:31;;;;;;;2.27;2.17;;;13.60;99.90;14.30;102317.00;;;;5069409;28;20190;-75
2022/05/01 07:30:17;;;;;;;2.17;0.87;;;14.50;99.90;13.90;102326.00;;;;5058006;28;20629;-74
2022/05/01 07:32:43;;;;;;;3.27;2.40;;;14.50;99.90;16.70;102367.00;;;;5058329;28;20198;-75
2022/05/01 07:35:12;;;;;;;0.95;0.85;;;15.80;99.90;16.10;102396.00;;;;5042119;28;20186;-75
2022/05/01 07:37:44;;;;;;;1.60;1.50;;;16.20;99.90;17.30;102403.00;;;;5057878;28;20619;-75
2022/05/01 07:40:32;;;;;;;0.10;0.10;;;17.00;99.90;17.80;102418.00;;;;5040689;28;20197;-75
2022/05/01 07:43:19;;;;;;;2.08;1.63;;;17.50;99.90;18.50;102429.00;;;;5002014;28;20226;-75
2022/05/01 07:46:22;;;;;;;0.20;0.20;;;18.00;99.90;19.10;102451.00;;;;5018537;28;20258;-77
2022/05/01 07:48:49;;;;;;;1.02;1.02;;;19.00;99.90;18.50;102447.00;;;;5070015;28;20218;-73
2022/05/01 07:51:16;;;;;;;2.25;2.15;;;18.30;99.90;18.40;102463.00;;;;5020997;28;20271;-71
2022/05/01 07:53:50;;;;;;;0.75;0.75;;;18.90;99.90;18.50;102431.00;;;;5001383;28;20542;-71
2022/05/01 07:56:25;;;;;;;0.32;0.32;;;18.60;99.90;17.90;102455.00;;;;5017197;28;20626;-72
2022/05/01 07:58:52;;;;;;;0.10;0.10;;;18.20;99.90;20.10;102475.00;;;;5019608;28;20275;-72
2022/05/01 08:01:18;;;;;;;0.52;0.47;;;19.50;99.90;20.70;102480.00;;;;5037559;28;20264;-73
2022/05/01 08:06:29;;;;;;;1.15;1.08;;;18.90;99.90;20.60;102505.00;;;;5040469;28;20193;-72
2022/05/01 08:08:55;;;;;;;0.20;0.20;;;20.20;99.90;19.90;102512.00;;;;5037213;28;20182;-71
2022/05/01 08:11:24;;;;;;;0.73;0.73;;;19.80;99.90;19.10;102466.00;;;;5055171;28;20185;-72
2022/05/01 08:13:50;;;;;;;0.55;0.55;;;20.00;99.90;20.50;102497.00;;;;5020989;28;20239;-71
2022/05/01 08:16:20;;;;;;;0.65;0.65;;;20.20;99.90;20.70;102507.00;;;;5054012;28;20182;-72
2022/05/01 08:21:44;;;;;;;3.95;3.13;;;19.70;99.90;21.40;102493.00;;;;5059785;28;20219;-72
2022/05/01 08:24:12;;;;;;;0.30;0.30;;;20.60;99.90;20.80;102429.00;;;;5056814;28;20180;-72
2022/05/01 08:26:38;;;;;;;1.85;1.75;;;21.00;99.90;21.20;102403.00;;;;5040003;28;20231;-72
2022/05/01 08:29:26;;;;;;;2.40;2.20;;;21.10;99.90;16.70;102439.00;;;;5039508;28;20283;-71
2022/05/01 08:31:54;;;;;;;0.20;0.20;;;19.40;99.90;19.60;102414.00;;;;5073638;28;20188;-72
2022/05/01 08:34:28;;;;;;;0.57;0.47;;;19.50;99.90;18.40;102422.00;;;;5039806;28;20179;-72
2022/05/01 08:36:55;;;;;;;2.28;0.57;;;19.00;99.90;18.50;102383.00;;;;5056312;28;20200;-72
2022/05/01 08:39:23;;;;;;;0.10;0.10;;;18.60;99.90;17.80;102406.00;;;;5039994;28;20186;-72
2022/05/01 08:41:50;;;;;;;0.10;0.10;;;17.80;99.90;19.50;102421.00;;;;5056465;28;20197;-72
2022/05/01 08:44:27;;;;;;;7.32;3.60;;;18.60;99.90;20.40;102419.00;;;;5039208;28;20181;-72
2022/05/01 08:47:20;;;;;;;1.83;1.52;;;19.70;99.90;19.10;102412.00;;;;5049830;28;20832;-73
2022/05/01 08:49:56;;;;;;;0.90;0.90;;;19.60;99.90;19.00;102434.00;;;;5036467;28;20217;-72
2022/05/01 08:52:22;;;;;;;0.88;0.88;;;19.10;99.90;17.70;102411.00;;;;5036733;28;20190;-72
2022/05/01 08:54:49;;;;;;;0.10;0.10;;;18.30;99.90;18.80;102415.00;;;;5036337;28;20181;-72
2022/05/01 08:57:21;;;;;;;0.10;0.10;;;18.50;99.90;18.60;102424.00;;;;5036638;28;20637;-72
2022/05/01 08:59:52;;;;;;;1.45;1.45;;;19.10;99.90;17.30;102424.00;;;;5035803;28;20198;-72
2022/05/01 09:02:25;;;;;;;3.03;2.13;;;18.20;99.90;16.20;102392.00;;;;5053668;28;20284;-72
2022/05/01 09:04:51;;;;;;;0.67;0.67;;;17.40;99.90;16.10;102434.00;;;;5019085;28;20183;-73
2022/05/01 09:07:18;;;;;;;0.40;0.40;;;16.30;99.90;17.40;102426.00;;;;5036523;28;20174;-73
2022/05/01 09:09:44;;;;;;;0.87;0.80;;;16.80;99.90;17.90;102422.00;;;;5019297;28;20199;-73
2022/05/01 09:14:58;;;;;;;1.53;1.03;;;17.60;99.90;18.60;102419.00;;;;5038124;28;20196;-74
2022/05/01 09:17:24;;;;;;;3.93;2.20;;;18.20;99.90;16.90;102418.00;;;;5020736;28;20185;-75
2022/05/01 09:20:05;;;;;;;1.00;1.00;;;18.10;99.90;17.00;102430.00;;;;5033868;28;20580;-74
2022/05/01 09:22:53;;;;;;;1.38;1.27;;;17.60;99.90;17.00;102431.00;;;;5033948;28;20696;-73
2022/05/01 09:25:40;;;;;;;0.10;0.10;;;17.50;99.90;19.40;102416.00;;;;5016615;28;20630;-73
2022/05/01 09:28:22;;;;;;;0.65;0.65;;;18.60;99.90;19.10;102407.00;;;;5017764;28;20171;-73
2022/05/01 09:31:03;;;;;;;1.05;0.95;;;19.10;99.90;18.20;102432.00;;;;5018290;28;20174;-73
2022/05/01 09:33:33;;;;;;;0.10;0.10;;;18.50;99.90;17.20;102419.00;;;;5053982;28;20750;-72
2022/05/01 09:35:59;;;;;;;2.03;1.93;;;17.60;99.90;16.30;102430.00;;;;5032572;28;20197;-68
2022/05/01 09:38:35;;;;;;;0.97;0.83;;;16.70;99.90;15.70;102422.00;;;;5053817;28;20294;-68
2022/05/01 09:41:13;;;;;;;2.20;1.57;;;16.30;99.90;14.80;102420.00;;;;5034894;28;20506;-68
2022/05/01 09:43:44;;;;;;;0.60;0.30;;;15.40;99.90;14.70;102374.00;;;;5015507;28;20301;-78
2022/05/01 09:46:33;;;;;;;0.50;0.50;;;15.10;99.90;15.40;102422.00;;;;5041259;28;20195;-78
2022/05/01 09:49:12;;;;;;;0.30;0.30;;;15.10;99.90;14.00;102408.00;;;;5019392;28;20284;-78
2022/05/01 09:51:46;;;;;;;1.20;0.60;;;14.40;99.90;15.30;102411.00;;;;5035844;28;20232;-78
2022/05/01 09:55:21;;;;;;;0.97;0.97;;;14.70;99.90;15.10;102413.00;;;;5035477;28;20160;-77
2022/05/01 09:58:38;;;;;;;1.40;0.63;;;14.90;99.90;15.20;102412.00;;;;4963449;28;20283;-78
2022/05/01 10:01:11;;;;;;;2.90;2.70;;;15.10;99.90;15.40;102414.00;;;;4992647;28;20195;-78
2022/05/01 10:03:48;;;;;;;0.90;0.90;;;15.20;99.90;15.20;102412.00;;;;5035370;28;20186;-78
2022/05/01 10:06:29;;;;;;;2.77;2.60;;;15.10;99.90;14.20;102395.00;;;;5035229;28;20623;-76
2022/05/01 10:08:56;;;;;;;1.17;1.10;;;15.10;99.90;13.70;102384.00;;;;5052943;28;20517;-77
2022/05/01 10:11:49;;;;;;;4.23;3.07;;;14.30;99.90;14.20;102394.00;;;;5034916;28;20188;-75
2022/05/01 10:14:24;;;;;;;0.47;0.40;;;14.40;99.90;16.40;102398.00;;;;5053096;28;20185;-77
2022/05/01 10:17:07;;;;;;;0.10;0.10;;;15.60;99.90;17.10;102410.00;;;;5018554;28;20188;-78
2022/05/01 10:20:03;;;;;;;1.87;1.77;;;16.40;99.90;18.00;102421.00;;;;5018824;28;20178;-80
2022/05/01 10:33:38;;;;;;;0.25;0.25;;;17.80;99.90;16.70;102356.00;;;;5091591;27;1770421;-78
2022/05/01 10:36:16;;;;;;;1.45;1.35;;;17.60;99.90;18.20;102391.00;;;;5112108;28;20553;-77
2022/05/01 10:39:35;;;;;;;2.75;1.45;;;17.70;99.90;17.50;102392.00;;;;5112443;28;20190;-77
2022/05/01 10:46:35;;;;;;;1.43;1.20;;;16.80;99.90;16.30;102384.00;;;;5114649;28;20191;-78
2022/05/01 10:49:36;;;;;;;1.33;1.23;;;16.40;99.90;16.10;102360.00;;;;5110367;28;20245;-78
2022/05/01 10:52:48;;;;;;;0.63;0.40;;;16.40;99.90;16.50;102374.00;;;;5091808;28;20215;-80
2022/05/01 10:55:14;;;;;;;0.40;0.40;;;16.60;99.90;17.20;102366.00;;;;5089343;28;20198;-78
2022/05/01 10:58:27;;;;;;;1.90;1.13;;;17.00;99.90;17.00;102370.00;;;;5091435;28;20639;-78
2022/05/01 11:01:12;;;;;;;2.23;1.53;;;17.20;99.90;17.30;102326.00;;;;5106121;28;20166;-78
2022/05/01 11:04:36;;;;;;;0.27;0.27;;;17.10;99.90;19.20;102347.00;;;;5112584;28;20615;-78
2022/05/01 11:07:07;;;;;;;5.57;4.40;;;18.20;99.90;15.80;102381.00;;;;5092214;28;20207;-78
2022/05/01 11:10:19;;;;;;;0.40;0.40;;;17.60;99.90;17.30;102320.00;;;;5091519;28;20208;-79
2022/05/01 11:12:46;;;;;;;0.10;0.10;;;16.90;99.90;18.60;102343.00;;;;5092315;28;20224;-77
2022/05/01 11:15:12;;;;;;;1.70;1.60;;;17.90;99.90;18.70;102335.00;;;;5108201;28;20182;-78
2022/05/01 11:17:44;;;;;;;0.68;0.68;;;18.30;99.90;17.30;102318.00;;;;5105380;28;20267;-78
2022/05/01 11:20:19;;;;;;;0.20;0.20;;;18.20;99.90;17.60;102330.00;;;;5091608;28;20187;-77
2022/05/01 11:22:49;;;;;;;0.43;0.43;;;17.90;99.90;19.10;102332.00;;;;5091584;28;20180;-78
2022/05/01 11:25:38;;;;;;;0.15;0.15;;;18.40;99.90;17.40;102303.00;;;;5091502;28;20302;-77
2022/05/01 11:28:05;;;;;;;0.55;0.55;;;17.70;99.90;18.90;102329.00;;;;5091564;28;20245;-77
2022/05/01 11:30:37;;;;;;;0.40;0.40;;;18.40;99.90;17.70;102334.00;;;;5091900;28;20203;-77
2022/05/01 11:33:10;;;;;;;1.48;1.25;;;18.20;99.90;17.30;102324.00;;;;5073684;28;21216;-78
2022/05/01 11:36:06;;;;;;;0.20;0.20;;;18.20;99.90;18.40;102319.00;;;;5073975;28;20628;-78
2022/05/01 11:38:39;;;;;;;1.95;1.85;;;18.30;99.90;19.30;102269.00;;;;5090953;28;20202;-78
2022/05/01 11:41:11;;;;;;;0.20;0.20;;;18.80;99.90;19.00;102278.00;;;;5090737;28;20183;-79
2022/05/01 11:43:36;;;;;;;0.32;0.32;;;18.90;99.90;19.20;102260.00;;;;5101275;28;20153;-78
2022/05/01 11:46:04;;;;;;;0.85;0.85;;;19.10;99.90;18.00;102308.00;;;;5060919;28;20195;-78
2022/05/01 11:48:31;;;;;;;0.50;0.50;;;18.80;99.90;17.50;102306.00;;;;5077491;28;20180;-78
2022/05/01 11:51:00;;;;;;;1.35;1.05;;;18.10;99.90;18.40;102295.00;;;;5077976;28;20501;-79
2022/05/01 11:53:32;;;;;;;1.73;1.63;;;18.10;99.90;17.70;102303.00;;;;5078211;28;20157;-79
2022/05/01 12:05:48;;;;;;;0.40;0.40;;;17.50;99.90;18.20;102238.00;;;;5081529;28;20278;-78
2022/05/01 12:08:49;;;;;;;0.10;0.10;;;17.50;99.90;19.00;102269.00;;;;5094762;28;20272;-79